sensor_id;sensor_type;location;lat;lon;timestamp;P1;durP1;ratioP1;P2;durP2;ratioP2
64387;SDS011;50709;52.648;4.764;2022-08-21T00:00:14;7.18;;;3.85;;
64387;SDS011;50709;52.648;4.764;2022-08-21T00:02:45;5.82;;;3.35;;
64387;SDS011;50709;52.648;4.764;2022-08-21T00:05:13;5.20;;;3.40;;
64387;SDS011;50709;52.648;4.764;2022-08-21T00:07:39;7.10;;;3.67;;
64387;SDS011;50709;52.648;4.764;2022-08-21T00:10:05;9.20;;;3.70;;
64387;SDS011;50709;52.648;4.764;2022-08-21T00:12:31;7.20;;;3.35;;
64387;SDS011;50709;52.648;4.764;2022-08-21T00:14:57;6.88;;;3.40;;
64387;SDS011;50709;52.648;4.764;2022-08-21T00:17:22;9.35;;;3.45;;
64387;SDS011;50709;52.648;4.764;2022-08-21T00:19:48;6.75;;;3.45;;
64387;SDS011;50709;52.648;4.764;2022-08-21T00:22:13;7.60;;;3.63;;
64387;SDS011;50709;52.648;4.764;2022-08-21T00:24:39;5.60;;;3.38;;
64387;SDS011;50709;52.648;4.764;2022-08-21T00:27:04;9.05;;;3.50;;
64387;SDS011;50709;52.648;4.764;2022-08-21T00:29:29;7.57;;;3.20;;
64387;SDS011;50709;52.648;4.764;2022-08-21T00:31:55;10.52;;;3.83;;
64387;SDS011;50709;52.648;4.764;2022-08-21T00:34:20;8.25;;;3.55;;
64387;SDS011;50709;52.648;4.764;2022-08-21T00:36:45;6.18;;;3.30;;
64387;SDS011;50709;52.648;4.764;2022-08-21T00:39:11;9.50;;;3.77;;
64387;SDS011;50709;52.648;4.764;2022-08-21T00:41:36;5.75;;;3.50;;
64387;SDS011;50709;52.648;4.764;2022-08-21T00:44:03;7.53;;;3.70;;
64387;SDS011;50709;52.648;4.764;2022-08-21T00:46:30;8.52;;;3.67;;
64387;SDS011;50709;52.648;4.764;2022-08-21T00:48:56;8.70;;;3.63;;
64387;SDS011;50709;52.648;4.764;2022-08-21T00:51:25;7.65;;;3.75;;
64387;SDS011;50709;52.648;4.764;2022-08-21T00:53:56;7.10;;;3.90;;
64387;SDS011;50709;52.648;4.764;2022-08-21T00:56:25;8.60;;;3.33;;
64387;SDS011;50709;52.648;4.764;2022-08-21T00:58:52;6.43;;;3.45;;
64387;SDS011;50709;52.648;4.764;2022-08-21T01:01:20;7.13;;;3.70;;
64387;SDS011;50709;52.648;4.764;2022-08-21T01:03:45;7.55;;;3.50;;
64387;SDS011;50709;52.648;4.764;2022-08-21T01:06:11;6.13;;;3.72;;
64387;SDS011;50709;52.648;4.764;2022-08-21T01:08:37;6.88;;;3.72;;
64387;SDS011;50709;52.648;4.764;2022-08-21T01:11:03;8.00;;;3.80;;
64387;SDS011;50709;52.648;4.764;2022-08-21T01:13:30;6.80;;;3.63;;
64387;SDS011;50709;52.648;4.764;2022-08-21T01:15:59;6.65;;;3.63;;
64387;SDS011;50709;52.648;4.764;2022-08-21T01:18:27;8.93;;;3.55;;
64387;SDS011;50709;52.648;4.764;2022-08-21T01:23:30;9.20;;;3.72;;
64387;SDS011;50709;52.648;4.764;2022-08-21T01:25:56;8.30;;;3.75;;
64387;SDS011;50709;52.648;4.764;2022-08-21T01:28:22;7.55;;;3.97;;
64387;SDS011;50709;52.648;4.764;2022-08-21T01:30:47;8.50;;;4.00;;
64387;SDS011;50709;52.648;4.764;2022-08-21T01:33:16;7.90;;;3.38;;
64387;SDS011;50709;52.648;4.764;2022-08-21T01:35:43;8.73;;;3.40;;
64387;SDS011;50709;52.648;4.764;2022-08-21T01:38:08;10.27;;;3.78;;
64387;SDS011;50709;52.648;4.764;2022-08-21T01:40:34;8.00;;;3.47;;
64387;SDS011;50709;52.648;4.764;2022-08-21T01:42:59;6.45;;;3.42;;
64387;SDS011;50709;52.648;4.764;2022-08-21T01:45:25;6.70;;;3.45;;
64387;SDS011;50709;52.648;4.764;2022-08-21T01:47:50;6.30;;;3.63;;
64387;SDS011;50709;52.648;4.764;2022-08-21T01:50:17;8.95;;;3.80;;
64387;SDS011;50709;52.648;4.764;2022-08-21T01:52:44;6.93;;;3.50;;
64387;SDS011;50709;52.648;4.764;2022-08-21T01:55:10;10.18;;;3.50;;
64387;SDS011;50709;52.648;4.764;2022-08-21T01:57:37;5.88;;;3.50;;
64387;SDS011;50709;52.648;4.764;2022-08-21T02:00:04;9.70;;;3.78;;
64387;SDS011;50709;52.648;4.764;2022-08-21T02:02:33;6.47;;;3.30;;
64387;SDS011;50709;52.648;4.764;2022-08-21T02:04:58;5.93;;;3.40;;
64387;SDS011;50709;52.648;4.764;2022-08-21T02:07:24;7.82;;;3.80;;
64387;SDS011;50709;52.648;4.764;2022-08-21T02:09:49;9.93;;;3.80;;
64387;SDS011;50709;52.648;4.764;2022-08-21T02:12:15;7.65;;;4.10;;
64387;SDS011;50709;52.648;4.764;2022-08-21T02:14:40;8.57;;;3.83;;
64387;SDS011;50709;52.648;4.764;2022-08-21T02:17:05;6.40;;;3.60;;
64387;SDS011;50709;52.648;4.764;2022-08-21T02:19:31;11.95;;;3.83;;
64387;SDS011;50709;52.648;4.764;2022-08-21T02:21:56;10.43;;;3.58;;
64387;SDS011;50709;52.648;4.764;2022-08-21T02:24:21;8.07;;;3.78;;
64387;SDS011;50709;52.648;4.764;2022-08-21T02:26:47;7.63;;;3.55;;
64387;SDS011;50709;52.648;4.764;2022-08-21T02:29:12;8.15;;;3.50;;
64387;SDS011;50709;52.648;4.764;2022-08-21T02:31:37;7.82;;;3.78;;
64387;SDS011;50709;52.648;4.764;2022-08-21T02:34:03;7.20;;;3.60;;
64387;SDS011;50709;52.648;4.764;2022-08-21T02:36:28;8.20;;;4.00;;
64387;SDS011;50709;52.648;4.764;2022-08-21T02:38:53;9.10;;;4.13;;
64387;SDS011;50709;52.648;4.764;2022-08-21T02:41:20;6.65;;;3.90;;
64387;SDS011;50709;52.648;4.764;2022-08-21T02:43:46;7.53;;;3.70;;
64387;SDS011;50709;52.648;4.764;2022-08-21T02:46:13;7.00;;;3.80;;
64387;SDS011;50709;52.648;4.764;2022-08-21T02:48:40;8.77;;;4.28;;
64387;SDS011;50709;52.648;4.764;2022-08-21T02:51:07;9.43;;;4.93;;
64387;SDS011;50709;52.648;4.764;2022-08-21T02:53:35;9.57;;;4.40;;
64387;SDS011;50709;52.648;4.764;2022-08-21T02:56:04;9.70;;;3.92;;
64387;SDS011;50709;52.648;4.764;2022-08-21T02:58:34;6.68;;;3.90;;
64387;SDS011;50709;52.648;4.764;2022-08-21T03:01:08;8.30;;;3.80;;
64387;SDS011;50709;52.648;4.764;2022-08-21T03:03:34;11.13;;;4.38;;
64387;SDS011;50709;52.648;4.764;2022-08-21T03:06:01;9.52;;;4.22;;
64387;SDS011;50709;52.648;4.764;2022-08-21T03:08:26;9.13;;;4.10;;
64387;SDS011;50709;52.648;4.764;2022-08-21T03:10:52;10.80;;;4.68;;
64387;SDS011;50709;52.648;4.764;2022-08-21T03:13:18;9.02;;;4.15;;
64387;SDS011;50709;52.648;4.764;2022-08-21T03:15:45;8.05;;;3.95;;
64387;SDS011;50709;52.648;4.764;2022-08-21T03:18:11;9.85;;;4.30;;
64387;SDS011;50709;52.648;4.764;2022-08-21T03:20:37;8.55;;;4.20;;
64387;SDS011;50709;52.648;4.764;2022-08-21T03:23:04;9.85;;;4.15;;
64387;SDS011;50709;52.648;4.764;2022-08-21T03:25:31;12.32;;;4.43;;
64387;SDS011;50709;52.648;4.764;2022-08-21T03:27:57;12.02;;;4.53;;
64387;SDS011;50709;52.648;4.764;2022-08-21T03:30:23;10.35;;;4.47;;
64387;SDS011;50709;52.648;4.764;2022-08-21T03:32:49;8.68;;;3.97;;
64387;SDS011;50709;52.648;4.764;2022-08-21T03:35:15;7.70;;;4.00;;
64387;SDS011;50709;52.648;4.764;2022-08-21T03:37:41;7.65;;;4.10;;
64387;SDS011;50709;52.648;4.764;2022-08-21T03:40:07;7.20;;;3.92;;
64387;SDS011;50709;52.648;4.764;2022-08-21T03:42:34;8.73;;;3.97;;
64387;SDS011;50709;52.648;4.764;2022-08-21T03:44:59;10.10;;;4.35;;
64387;SDS011;50709;52.648;4.764;2022-08-21T03:47:25;7.85;;;4.13;;
64387;SDS011;50709;52.648;4.764;2022-08-21T03:49:50;7.97;;;3.90;;
64387;SDS011;50709;52.648;4.764;2022-08-21T03:52:17;8.85;;;4.07;;
64387;SDS011;50709;52.648;4.764;2022-08-21T03:54:43;11.10;;;4.35;;
64387;SDS011;50709;52.648;4.764;2022-08-21T03:57:10;8.73;;;3.92;;
64387;SDS011;50709;52.648;4.764;2022-08-21T03:59:35;11.35;;;3.70;;
64387;SDS011;50709;52.648;4.764;2022-08-21T04:02:02;8.57;;;3.53;;
64387;SDS011;50709;52.648;4.764;2022-08-21T04:04:29;10.13;;;3.80;;
64387;SDS011;50709;52.648;4.764;2022-08-21T04:06:55;10.23;;;3.33;;
64387;SDS011;50709;52.648;4.764;2022-08-21T04:09:21;9.82;;;5.00;;
64387;SDS011;50709;52.648;4.764;2022-08-21T04:11:47;10.27;;;4.10;;
64387;SDS011;50709;52.648;4.764;2022-08-21T04:14:13;9.40;;;4.10;;
64387;SDS011;50709;52.648;4.764;2022-08-21T04:16:39;8.73;;;3.42;;
64387;SDS011;50709;52.648;4.764;2022-08-21T04:19:06;9.73;;;4.10;;
64387;SDS011;50709;52.648;4.764;2022-08-21T04:21:32;10.95;;;4.03;;
64387;SDS011;50709;52.648;4.764;2022-08-21T04:23:57;9.10;;;3.40;;
64387;SDS011;50709;52.648;4.764;2022-08-21T04:26:24;9.45;;;3.95;;
64387;SDS011;50709;52.648;4.764;2022-08-21T04:28:50;8.43;;;4.07;;
64387;SDS011;50709;52.648;4.764;2022-08-21T04:31:16;9.40;;;4.25;;
64387;SDS011;50709;52.648;4.764;2022-08-21T04:33:41;7.75;;;3.75;;
64387;SDS011;50709;52.648;4.764;2022-08-21T04:36:06;7.40;;;3.92;;
64387;SDS011;50709;52.648;4.764;2022-08-21T04:38:33;12.05;;;4.20;;
64387;SDS011;50709;52.648;4.764;2022-08-21T04:40:58;10.95;;;3.92;;
64387;SDS011;50709;52.648;4.764;2022-08-21T04:43:24;9.50;;;3.50;;
64387;SDS011;50709;52.648;4.764;2022-08-21T04:45:50;9.40;;;3.90;;
64387;SDS011;50709;52.648;4.764;2022-08-21T04:48:18;8.02;;;3.65;;
64387;SDS011;50709;52.648;4.764;2022-08-21T04:50:48;8.82;;;3.33;;
64387;SDS011;50709;52.648;4.764;2022-08-21T04:55:45;9.02;;;4.03;;
64387;SDS011;50709;52.648;4.764;2022-08-21T04:58:13;7.75;;;3.72;;
64387;SDS011;50709;52.648;4.764;2022-08-21T05:00:42;10.00;;;3.25;;
64387;SDS011;50709;52.648;4.764;2022-08-21T05:03:09;8.68;;;3.78;;
64387;SDS011;50709;52.648;4.764;2022-08-21T05:05:36;8.65;;;3.75;;
64387;SDS011;50709;52.648;4.764;2022-08-21T05:08:02;9.30;;;3.45;;
64387;SDS011;50709;52.648;4.764;2022-08-21T05:10:28;7.45;;;3.42;;
64387;SDS011;50709;52.648;4.764;2022-08-21T05:12:56;10.50;;;3.72;;
64387;SDS011;50709;52.648;4.764;2022-08-21T05:15:21;12.13;;;3.95;;
64387;SDS011;50709;52.648;4.764;2022-08-21T05:17:47;8.80;;;3.60;;
64387;SDS011;50709;52.648;4.764;2022-08-21T05:20:12;9.60;;;3.83;;
64387;SDS011;50709;52.648;4.764;2022-08-21T05:22:38;8.50;;;3.35;;
64387;SDS011;50709;52.648;4.764;2022-08-21T05:25:04;8.57;;;3.97;;
64387;SDS011;50709;52.648;4.764;2022-08-21T05:27:31;7.25;;;3.30;;
64387;SDS011;50709;52.648;4.764;2022-08-21T05:29:56;8.65;;;3.60;;
64387;SDS011;50709;52.648;4.764;2022-08-21T05:32:22;8.05;;;3.75;;
64387;SDS011;50709;52.648;4.764;2022-08-21T05:34:48;7.45;;;3.78;;
64387;SDS011;50709;52.648;4.764;2022-08-21T05:37:13;7.80;;;3.47;;
64387;SDS011;50709;52.648;4.764;2022-08-21T05:39:39;6.82;;;3.58;;
64387;SDS011;50709;52.648;4.764;2022-08-21T05:42:05;9.27;;;3.40;;
64387;SDS011;50709;52.648;4.764;2022-08-21T05:44:31;9.18;;;3.70;;
64387;SDS011;50709;52.648;4.764;2022-08-21T05:47:02;10.45;;;3.60;;
64387;SDS011;50709;52.648;4.764;2022-08-21T05:49:32;10.20;;;3.90;;
64387;SDS011;50709;52.648;4.764;2022-08-21T05:51:58;8.63;;;4.35;;
64387;SDS011;50709;52.648;4.764;2022-08-21T05:54:23;8.32;;;3.90;;
64387;SDS011;50709;52.648;4.764;2022-08-21T05:56:49;12.18;;;3.90;;
64387;SDS011;50709;52.648;4.764;2022-08-21T05:59:14;8.85;;;4.47;;
64387;SDS011;50709;52.648;4.764;2022-08-21T06:01:39;9.15;;;3.67;;
64387;SDS011;50709;52.648;4.764;2022-08-21T06:04:05;7.18;;;3.50;;
64387;SDS011;50709;52.648;4.764;2022-08-21T06:06:31;9.57;;;3.95;;
64387;SDS011;50709;52.648;4.764;2022-08-21T06:08:56;9.50;;;3.87;;
64387;SDS011;50709;52.648;4.764;2022-08-21T06:11:21;9.82;;;3.90;;
64387;SDS011;50709;52.648;4.764;2022-08-21T06:13:47;8.07;;;3.70;;
64387;SDS011;50709;52.648;4.764;2022-08-21T06:16:13;12.90;;;4.00;;
64387;SDS011;50709;52.648;4.764;2022-08-21T06:18:40;10.30;;;4.00;;
64387;SDS011;50709;52.648;4.764;2022-08-21T06:21:06;8.10;;;3.78;;
64387;SDS011;50709;52.648;4.764;2022-08-21T06:23:32;12.75;;;5.00;;
64387;SDS011;50709;52.648;4.764;2022-08-21T06:25:57;7.55;;;3.65;;
64387;SDS011;50709;52.648;4.764;2022-08-21T06:28:23;13.05;;;4.38;;
64387;SDS011;50709;52.648;4.764;2022-08-21T06:30:48;14.02;;;4.57;;
64387;SDS011;50709;52.648;4.764;2022-08-21T06:33:14;12.15;;;4.60;;
64387;SDS011;50709;52.648;4.764;2022-08-21T06:35:39;12.85;;;4.85;;
64387;SDS011;50709;52.648;4.764;2022-08-21T06:38:05;10.95;;;3.90;;
64387;SDS011;50709;52.648;4.764;2022-08-21T06:40:30;13.48;;;4.68;;
64387;SDS011;50709;52.648;4.764;2022-08-21T06:42:57;17.73;;;5.60;;
64387;SDS011;50709;52.648;4.764;2022-08-21T06:45:23;11.93;;;4.22;;
64387;SDS011;50709;52.648;4.764;2022-08-21T06:47:48;16.40;;;4.97;;
64387;SDS011;50709;52.648;4.764;2022-08-21T06:50:14;12.85;;;4.63;;
64387;SDS011;50709;52.648;4.764;2022-08-21T06:52:39;11.57;;;4.07;;
64387;SDS011;50709;52.648;4.764;2022-08-21T06:55:06;11.55;;;5.35;;
64387;SDS011;50709;52.648;4.764;2022-08-21T06:57:33;11.40;;;4.47;;
64387;SDS011;50709;52.648;4.764;2022-08-21T06:59:59;11.60;;;4.60;;
64387;SDS011;50709;52.648;4.764;2022-08-21T07:02:24;10.00;;;4.20;;
64387;SDS011;50709;52.648;4.764;2022-08-21T07:07:16;10.75;;;4.30;;
64387;SDS011;50709;52.648;4.764;2022-08-21T07:09:41;10.57;;;4.30;;
64387;SDS011;50709;52.648;4.764;2022-08-21T07:16:57;13.53;;;4.60;;
64387;SDS011;50709;52.648;4.764;2022-08-21T07:19:22;14.15;;;4.95;;
64387;SDS011;50709;52.648;4.764;2022-08-21T07:21:48;13.20;;;4.38;;
64387;SDS011;50709;52.648;4.764;2022-08-21T07:24:13;12.70;;;4.85;;
64387;SDS011;50709;52.648;4.764;2022-08-21T07:26:39;13.02;;;4.72;;
64387;SDS011;50709;52.648;4.764;2022-08-21T07:29:05;12.45;;;5.00;;
64387;SDS011;50709;52.648;4.764;2022-08-21T07:31:30;12.43;;;4.40;;
64387;SDS011;50709;52.648;4.764;2022-08-21T07:33:56;14.18;;;4.75;;
64387;SDS011;50709;52.648;4.764;2022-08-21T07:36:22;12.40;;;5.00;;
64387;SDS011;50709;52.648;4.764;2022-08-21T07:38:47;9.98;;;4.28;;
64387;SDS011;50709;52.648;4.764;2022-08-21T07:41:14;15.32;;;4.68;;
64387;SDS011;50709;52.648;4.764;2022-08-21T07:43:42;15.10;;;5.32;;
64387;SDS011;50709;52.648;4.764;2022-08-21T07:46:08;15.65;;;5.60;;
64387;SDS011;50709;52.648;4.764;2022-08-21T07:48:34;14.73;;;4.90;;
64387;SDS011;50709;52.648;4.764;2022-08-21T07:51:00;10.35;;;4.38;;
64387;SDS011;50709;52.648;4.764;2022-08-21T07:55:58;10.43;;;4.18;;
64387;SDS011;50709;52.648;4.764;2022-08-21T07:58:24;10.07;;;3.97;;
64387;SDS011;50709;52.648;4.764;2022-08-21T08:00:49;12.73;;;4.75;;
64387;SDS011;50709;52.648;4.764;2022-08-21T08:03:15;11.07;;;4.38;;
64387;SDS011;50709;52.648;4.764;2022-08-21T08:05:40;7.75;;;3.50;;
64387;SDS011;50709;52.648;4.764;2022-08-21T08:08:06;8.95;;;3.83;;
64387;SDS011;50709;52.648;4.764;2022-08-21T08:42:29;19.42;;;6.57;;
64387;SDS011;50709;52.648;4.764;2022-08-21T08:47:33;16.02;;;6.43;;
64387;SDS011;50709;52.648;4.764;2022-08-21T08:52:49;15.80;;;5.25;;
64387;SDS011;50709;52.648;4.764;2022-08-21T08:55:36;13.30;;;4.65;;
64387;SDS011;50709;52.648;4.764;2022-08-21T08:58:04;11.65;;;4.22;;
64387;SDS011;50709;52.648;4.764;2022-08-21T09:00:29;13.70;;;5.07;;
64387;SDS011;50709;52.648;4.764;2022-08-21T09:02:56;7.43;;;4.00;;
64387;SDS011;50709;52.648;4.764;2022-08-21T09:05:26;11.93;;;3.78;;
64387;SDS011;50709;52.648;4.764;2022-08-21T09:27:12;12.32;;;3.92;;
64387;SDS011;50709;52.648;4.764;2022-08-21T11:10:01;8.25;;;3.50;;
64387;SDS011;50709;52.648;4.764;2022-08-21T11:12:44;9.00;;;3.40;;
64387;SDS011;50709;52.648;4.764;2022-08-21T11:15:27;9.38;;;3.40;;
64387;SDS011;50709;52.648;4.764;2022-08-21T11:18:04;12.13;;;3.60;;
64387;SDS011;50709;52.648;4.764;2022-08-21T11:21:58;9.88;;;3.90;;
64387;SDS011;50709;52.648;4.764;2022-08-21T11:24:19;9.85;;;3.58;;
64387;SDS011;50709;52.648;4.764;2022-08-21T11:29:57;8.60;;;3.28;;
64387;SDS011;50709;52.648;4.764;2022-08-21T11:38:22;7.80;;;3.22;;
64387;SDS011;50709;52.648;4.764;2022-08-21T11:43:40;8.68;;;3.10;;
64387;SDS011;50709;52.648;4.764;2022-08-21T11:46:11;7.63;;;3.10;;
64387;SDS011;50709;52.648;4.764;2022-08-21T11:48:48;8.25;;;3.33;;
64387;SDS011;50709;52.648;4.764;2022-08-21T11:51:19;6.18;;;3.17;;
64387;SDS011;50709;52.648;4.764;2022-08-21T11:56:43;8.73;;;3.13;;
64387;SDS011;50709;52.648;4.764;2022-08-21T11:59:23;7.05;;;2.90;;
64387;SDS011;50709;52.648;4.764;2022-08-21T12:02:12;7.28;;;2.80;;
64387;SDS011;50709;52.648;4.764;2022-08-21T12:04:45;7.10;;;2.85;;
64387;SDS011;50709;52.648;4.764;2022-08-21T12:07:15;8.30;;;2.95;;
64387;SDS011;50709;52.648;4.764;2022-08-21T12:09:54;6.43;;;2.90;;
64387;SDS011;50709;52.648;4.764;2022-08-21T12:12:31;8.25;;;3.15;;
64387;SDS011;50709;52.648;4.764;2022-08-21T12:17:51;5.80;;;2.70;;
64387;SDS011;50709;52.648;4.764;2022-08-21T12:22:53;7.40;;;2.55;;
64387;SDS011;50709;52.648;4.764;2022-08-21T12:25:21;6.80;;;2.58;;
64387;SDS011;50709;52.648;4.764;2022-08-21T12:27:49;6.00;;;3.22;;
64387;SDS011;50709;52.648;4.764;2022-08-21T12:30:33;7.50;;;3.13;;
64387;SDS011;50709;52.648;4.764;2022-08-21T12:33:17;5.22;;;2.40;;
64387;SDS011;50709;52.648;4.764;2022-08-21T12:35:46;7.13;;;3.10;;
64387;SDS011;50709;52.648;4.764;2022-08-21T12:40:55;6.80;;;2.78;;
64387;SDS011;50709;52.648;4.764;2022-08-21T12:43:36;8.85;;;3.30;;
64387;SDS011;50709;52.648;4.764;2022-08-21T12:46:06;7.55;;;2.70;;
64387;SDS011;50709;52.648;4.764;2022-08-21T12:48:51;5.07;;;2.80;;
64387;SDS011;50709;52.648;4.764;2022-08-21T12:51:42;7.75;;;2.33;;
64387;SDS011;50709;52.648;4.764;2022-08-21T12:54:24;7.13;;;2.83;;
64387;SDS011;50709;52.648;4.764;2022-08-21T12:57:02;5.43;;;2.38;;
64387;SDS011;50709;52.648;4.764;2022-08-21T12:59:29;7.47;;;2.90;;
64387;SDS011;50709;52.648;4.764;2022-08-21T13:01:56;7.18;;;2.90;;
64387;SDS011;50709;52.648;4.764;2022-08-21T13:04:33;9.05;;;3.08;;
64387;SDS011;50709;52.648;4.764;2022-08-21T13:07:04;8.45;;;3.60;;
64387;SDS011;50709;52.648;4.764;2022-08-21T13:09:40;7.25;;;3.00;;
64387;SDS011;50709;52.648;4.764;2022-08-21T13:12:11;5.65;;;2.50;;
64387;SDS011;50709;52.648;4.764;2022-08-21T13:14:38;8.35;;;3.25;;
64387;SDS011;50709;52.648;4.764;2022-08-21T13:17:07;8.10;;;2.67;;
64387;SDS011;50709;52.648;4.764;2022-08-21T13:19:33;6.80;;;2.80;;
64387;SDS011;50709;52.648;4.764;2022-08-21T13:21:59;6.95;;;2.83;;
64387;SDS011;50709;52.648;4.764;2022-08-21T13:24:26;8.25;;;2.70;;
64387;SDS011;50709;52.648;4.764;2022-08-21T13:26:51;7.10;;;2.50;;
64387;SDS011;50709;52.648;4.764;2022-08-21T13:29:18;8.95;;;3.22;;
64387;SDS011;50709;52.648;4.764;2022-08-21T13:31:55;8.98;;;2.80;;
64387;SDS011;50709;52.648;4.764;2022-08-21T13:34:29;4.80;;;2.63;;
64387;SDS011;50709;52.648;4.764;2022-08-21T13:37:00;8.18;;;2.70;;
64387;SDS011;50709;52.648;4.764;2022-08-21T13:39:29;6.57;;;2.70;;
64387;SDS011;50709;52.648;4.764;2022-08-21T13:41:55;6.15;;;2.50;;
64387;SDS011;50709;52.648;4.764;2022-08-21T13:47:00;5.35;;;2.70;;
64387;SDS011;50709;52.648;4.764;2022-08-21T13:49:32;10.30;;;2.92;;
64387;SDS011;50709;52.648;4.764;2022-08-21T13:52:00;7.25;;;2.85;;
64387;SDS011;50709;52.648;4.764;2022-08-21T13:54:29;7.93;;;2.95;;
64387;SDS011;50709;52.648;4.764;2022-08-21T13:56:59;7.90;;;2.70;;
64387;SDS011;50709;52.648;4.764;2022-08-21T13:59:25;6.85;;;2.90;;
64387;SDS011;50709;52.648;4.764;2022-08-21T14:01:53;9.43;;;2.83;;
64387;SDS011;50709;52.648;4.764;2022-08-21T14:04:34;5.25;;;2.38;;
64387;SDS011;50709;52.648;4.764;2022-08-21T14:07:17;6.22;;;2.40;;
64387;SDS011;50709;52.648;4.764;2022-08-21T14:09:46;6.35;;;2.58;;
64387;SDS011;50709;52.648;4.764;2022-08-21T14:12:13;6.85;;;2.30;;
64387;SDS011;50709;52.648;4.764;2022-08-21T14:14:48;6.85;;;2.88;;
64387;SDS011;50709;52.648;4.764;2022-08-21T14:17:14;5.72;;;2.30;;
64387;SDS011;50709;52.648;4.764;2022-08-21T14:19:51;5.47;;;2.50;;
64387;SDS011;50709;52.648;4.764;2022-08-21T14:25:02;6.57;;;2.60;;
64387;SDS011;50709;52.648;4.764;2022-08-21T14:27:43;9.60;;;2.60;;
64387;SDS011;50709;52.648;4.764;2022-08-21T14:30:39;13.55;;;3.20;;
64387;SDS011;50709;52.648;4.764;2022-08-21T14:33:10;6.95;;;2.55;;
64387;SDS011;50709;52.648;4.764;2022-08-21T14:35:38;7.30;;;3.00;;
64387;SDS011;50709;52.648;4.764;2022-08-21T14:38:14;9.48;;;2.90;;
64387;SDS011;50709;52.648;4.764;2022-08-21T14:40:43;7.50;;;3.03;;
64387;SDS011;50709;52.648;4.764;2022-08-21T14:43:10;7.40;;;2.55;;
64387;SDS011;50709;52.648;4.764;2022-08-21T14:45:36;8.52;;;2.55;;
64387;SDS011;50709;52.648;4.764;2022-08-21T14:48:03;5.32;;;2.55;;
64387;SDS011;50709;52.648;4.764;2022-08-21T14:50:29;8.35;;;2.60;;
64387;SDS011;50709;52.648;4.764;2022-08-21T14:52:54;4.72;;;3.03;;
64387;SDS011;50709;52.648;4.764;2022-08-21T14:55:20;6.03;;;2.47;;
64387;SDS011;50709;52.648;4.764;2022-08-21T14:57:47;5.32;;;2.55;;
64387;SDS011;50709;52.648;4.764;2022-08-21T15:00:15;7.43;;;3.00;;
64387;SDS011;50709;52.648;4.764;2022-08-21T15:02:45;7.28;;;2.90;;
64387;SDS011;50709;52.648;4.764;2022-08-21T15:05:11;8.70;;;2.70;;
64387;SDS011;50709;52.648;4.764;2022-08-21T15:07:37;8.13;;;2.47;;
64387;SDS011;50709;52.648;4.764;2022-08-21T15:10:03;9.85;;;3.45;;
64387;SDS011;50709;52.648;4.764;2022-08-21T15:12:29;11.38;;;5.32;;
64387;SDS011;50709;52.648;4.764;2022-08-21T15:14:54;6.22;;;2.83;;
64387;SDS011;50709;52.648;4.764;2022-08-21T15:17:20;6.18;;;2.60;;
64387;SDS011;50709;52.648;4.764;2022-08-21T15:19:46;6.25;;;3.08;;
64387;SDS011;50709;52.648;4.764;2022-08-21T15:22:11;5.32;;;2.53;;
64387;SDS011;50709;52.648;4.764;2022-08-21T15:24:36;7.88;;;2.45;;
64387;SDS011;50709;52.648;4.764;2022-08-21T15:27:02;6.18;;;2.75;;
64387;SDS011;50709;52.648;4.764;2022-08-21T15:29:29;6.80;;;2.97;;
64387;SDS011;50709;52.648;4.764;2022-08-21T15:31:56;6.43;;;2.60;;
64387;SDS011;50709;52.648;4.764;2022-08-21T15:34:24;7.25;;;2.75;;
64387;SDS011;50709;52.648;4.764;2022-08-21T15:36:52;6.30;;;2.88;;
64387;SDS011;50709;52.648;4.764;2022-08-21T15:39:17;6.85;;;2.83;;
64387;SDS011;50709;52.648;4.764;2022-08-21T15:41:43;6.45;;;2.60;;
64387;SDS011;50709;52.648;4.764;2022-08-21T15:44:09;6.18;;;2.70;;
64387;SDS011;50709;52.648;4.764;2022-08-21T15:46:37;7.05;;;2.83;;
64387;SDS011;50709;52.648;4.764;2022-08-21T15:49:04;8.30;;;2.88;;
64387;SDS011;50709;52.648;4.764;2022-08-21T15:51:29;6.90;;;2.70;;
64387;SDS011;50709;52.648;4.764;2022-08-21T15:53:55;6.85;;;3.45;;
64387;SDS011;50709;52.648;4.764;2022-08-21T15:56:24;5.60;;;2.90;;
64387;SDS011;50709;52.648;4.764;2022-08-21T15:58:52;5.60;;;2.80;;
64387;SDS011;50709;52.648;4.764;2022-08-21T16:01:22;5.45;;;2.70;;
64387;SDS011;50709;52.648;4.764;2022-08-21T16:03:48;6.25;;;2.83;;
64387;SDS011;50709;52.648;4.764;2022-08-21T16:06:15;20.02;;;8.68;;
64387;SDS011;50709;52.648;4.764;2022-08-21T16:08:40;8.80;;;4.32;;
64387;SDS011;50709;52.648;4.764;2022-08-21T16:11:06;6.20;;;3.10;;
64387;SDS011;50709;52.648;4.764;2022-08-21T16:13:39;6.18;;;3.00;;
64387;SDS011;50709;52.648;4.764;2022-08-21T16:16:08;8.85;;;3.00;;
64387;SDS011;50709;52.648;4.764;2022-08-21T16:18:38;6.28;;;2.80;;
64387;SDS011;50709;52.648;4.764;2022-08-21T16:21:04;4.82;;;3.15;;
64387;SDS011;50709;52.648;4.764;2022-08-21T16:23:31;7.38;;;2.88;;
64387;SDS011;50709;52.648;4.764;2022-08-21T16:25:58;6.38;;;2.60;;
64387;SDS011;50709;52.648;4.764;2022-08-21T16:28:24;7.53;;;2.80;;
64387;SDS011;50709;52.648;4.764;2022-08-21T16:30:50;11.98;;;4.25;;
64387;SDS011;50709;52.648;4.764;2022-08-21T16:33:50;10.93;;;3.60;;
64387;SDS011;50709;52.648;4.764;2022-08-21T16:36:11;7.80;;;3.53;;
64387;SDS011;50709;52.648;4.764;2022-08-21T16:38:37;7.28;;;3.60;;
64387;SDS011;50709;52.648;4.764;2022-08-21T16:41:03;6.45;;;3.40;;
64387;SDS011;50709;52.648;4.764;2022-08-21T16:43:31;8.15;;;3.28;;
64387;SDS011;50709;52.648;4.764;2022-08-21T16:45:57;8.27;;;3.13;;
64387;SDS011;50709;52.648;4.764;2022-08-21T16:48:23;6.18;;;2.95;;
64387;SDS011;50709;52.648;4.764;2022-08-21T16:50:49;4.80;;;2.55;;
64387;SDS011;50709;52.648;4.764;2022-08-21T16:53:15;7.22;;;3.30;;
64387;SDS011;50709;52.648;4.764;2022-08-21T16:55:41;8.18;;;2.97;;
64387;SDS011;50709;52.648;4.764;2022-08-21T16:58:08;6.75;;;3.10;;
64387;SDS011;50709;52.648;4.764;2022-08-21T17:00:38;6.35;;;2.95;;
64387;SDS011;50709;52.648;4.764;2022-08-21T17:03:03;7.57;;;3.53;;
64387;SDS011;50709;52.648;4.764;2022-08-21T17:05:29;6.45;;;3.63;;
64387;SDS011;50709;52.648;4.764;2022-08-21T17:07:55;6.45;;;3.10;;
64387;SDS011;50709;52.648;4.764;2022-08-21T17:10:20;4.70;;;2.55;;
64387;SDS011;50709;52.648;4.764;2022-08-21T17:12:48;5.45;;;3.00;;
64387;SDS011;50709;52.648;4.764;2022-08-21T17:15:24;8.98;;;3.00;;
64387;SDS011;50709;52.648;4.764;2022-08-21T17:17:53;8.43;;;3.10;;
64387;SDS011;50709;52.648;4.764;2022-08-21T17:20:20;6.35;;;3.00;;
64387;SDS011;50709;52.648;4.764;2022-08-21T17:22:46;7.90;;;3.42;;
64387;SDS011;50709;52.648;4.764;2022-08-21T17:25:12;5.00;;;2.85;;
64387;SDS011;50709;52.648;4.764;2022-08-21T17:27:38;7.72;;;2.97;;
64387;SDS011;50709;52.648;4.764;2022-08-21T17:30:06;7.45;;;2.90;;
64387;SDS011;50709;52.648;4.764;2022-08-21T17:32:32;5.70;;;2.90;;
64387;SDS011;50709;52.648;4.764;2022-08-21T17:34:57;7.90;;;3.00;;
64387;SDS011;50709;52.648;4.764;2022-08-21T17:37:23;5.97;;;2.78;;
64387;SDS011;50709;52.648;4.764;2022-08-21T17:39:48;5.95;;;2.80;;
64387;SDS011;50709;52.648;4.764;2022-08-21T17:42:13;8.43;;;3.00;;
64387;SDS011;50709;52.648;4.764;2022-08-21T17:44:40;7.18;;;3.15;;
64387;SDS011;50709;52.648;4.764;2022-08-21T17:47:08;6.30;;;2.80;;
64387;SDS011;50709;52.648;4.764;2022-08-21T17:49:34;7.15;;;2.80;;
64387;SDS011;50709;52.648;4.764;2022-08-21T17:51:59;6.32;;;3.63;;
64387;SDS011;50709;52.648;4.764;2022-08-21T17:54:25;7.13;;;3.08;;
64387;SDS011;50709;52.648;4.764;2022-08-21T18:11:28;8.00;;;2.97;;
64387;SDS011;50709;52.648;4.764;2022-08-21T18:13:55;8.15;;;3.45;;
64387;SDS011;50709;52.648;4.764;2022-08-21T18:16:25;4.90;;;2.60;;
64387;SDS011;50709;52.648;4.764;2022-08-21T18:18:51;7.60;;;3.60;;
64387;SDS011;50709;52.648;4.764;2022-08-21T18:21:17;8.60;;;3.53;;
64387;SDS011;50709;52.648;4.764;2022-08-21T18:23:43;6.53;;;3.10;;